CPA742 VVNB-VHHH
Flight info
| Callsign | CPA742 |
|---|---|
| Flight time | 1h 24m |
| Altitude | 37100 |
| Route | NAKHA3A NAKHA R474 GYA A599 POU R473 SIERA |
| Aircraft | A333/H-SDE3GHIJ2J3J5M1RVWXY/LB2D1 |
Departure
| Time | 2026-05-06 04:47 |
|---|---|
| Airport | Noi Bai International Airport (VVNB) |
Arrival
| Time | 2026-05-06 06:11 |
|---|---|
| Airport | Hong Kong International Airport (VHHH) |
| Time | Latitude | Longitude | Altitude | Speed | Heading |
|---|---|---|---|---|---|
| 2026-05-06 04:29 | 21.21992 | 105.79013 | 48 ft | 0 kts | 198° |
| 2026-05-06 04:38 | 21.21993 | 105.79013 | 53 ft | 0 kts | 198° |
| 2026-05-06 04:40 | 21.21993 | 105.79014 | 53 ft | 1 kts | 198° |
| 2026-05-06 04:40 | 21.22015 | 105.79022 | 48 ft | 4 kts | 198° |
| 2026-05-06 04:40 | 21.22041 | 105.79031 | 50 ft | 4 kts | 198° |
| 2026-05-06 04:40 | 21.22064 | 105.79039 | 49 ft | 4 kts | 209° |
| 2026-05-06 04:41 | 21.22077 | 105.79057 | 47 ft | 4 kts | 270° |
| 2026-05-06 04:41 | 21.22074 | 105.79082 | 45 ft | 1 kts | 287° |
| 2026-05-06 04:41 | 21.22074 | 105.79083 | 45 ft | 0 kts | 287° |
| 2026-05-06 04:44 | 21.22080 | 105.79060 | 46 ft | 6 kts | 287° |
| 2026-05-06 04:44 | 21.22100 | 105.78993 | 48 ft | 12 kts | 287° |
| 2026-05-06 04:44 | 21.22127 | 105.78900 | 50 ft | 14 kts | 287° |
| 2026-05-06 04:45 | 21.22157 | 105.78795 | 51 ft | 15 kts | 287° |
| 2026-05-06 04:45 | 21.22191 | 105.78681 | 53 ft | 17 kts | 288° |
| 2026-05-06 04:45 | 21.22249 | 105.78612 | 50 ft | 11 kts | 351° |
| 2026-05-06 04:45 | 21.22327 | 105.78610 | 51 ft | 12 kts | 2° |
| 2026-05-06 04:46 | 21.22406 | 105.78629 | 52 ft | 12 kts | 17° |
| 2026-05-06 04:46 | 21.22455 | 105.78675 | 48 ft | 5 kts | 86° |
| 2026-05-06 04:46 | 21.22443 | 105.78727 | 50 ft | 13 kts | 108° |
| 2026-05-06 04:46 | 21.22383 | 105.78934 | 49 ft | 57 kts | 107° |
| 2026-05-06 04:47 | 21.22202 | 105.79560 | 49 ft | 118 kts | 108° |
| 2026-05-06 04:47 | 21.21904 | 105.80586 | 58 ft | 169 kts | 108° |
| 2026-05-06 04:47 | 21.21586 | 105.81815 | 768 ft | 168 kts | 108° |
| 2026-05-06 04:47 | 21.21272 | 105.83025 | 1484 ft | 170 kts | 110° |
| 2026-05-06 04:48 | 21.20924 | 105.84300 | 1857 ft | 189 kts | 108° |
| 2026-05-06 04:48 | 21.20526 | 105.85757 | 2058 ft | 217 kts | 108° |
| 2026-05-06 04:48 | 21.20095 | 105.87342 | 2685 ft | 221 kts | 109° |
| 2026-05-06 04:48 | 21.19673 | 105.88890 | 3399 ft | 222 kts | 108° |
| 2026-05-06 04:49 | 21.19231 | 105.90505 | 3973 ft | 228 kts | 109° |
| 2026-05-06 04:49 | 21.18778 | 105.92147 | 4583 ft | 231 kts | 108° |
| 2026-05-06 04:49 | 21.18315 | 105.93812 | 5191 ft | 235 kts | 108° |
| 2026-05-06 04:49 | 21.17848 | 105.95506 | 5811 ft | 239 kts | 107° |
| 2026-05-06 04:50 | 21.17574 | 105.97281 | 6424 ft | 246 kts | 90° |
| 2026-05-06 04:50 | 21.17930 | 105.99075 | 7033 ft | 250 kts | 63° |
| 2026-05-06 04:50 | 21.18985 | 106.00545 | 7633 ft | 252 kts | 37° |
| 2026-05-06 04:50 | 21.20429 | 106.01584 | 8208 ft | 255 kts | 27° |
| 2026-05-06 04:51 | 21.21979 | 106.02524 | 8872 ft | 257 kts | 25° |
| 2026-05-06 04:51 | 21.23544 | 106.03461 | 9530 ft | 259 kts | 25° |
| 2026-05-06 04:51 | 21.25119 | 106.04416 | 10134 ft | 261 kts | 25° |
| 2026-05-06 04:51 | 21.26721 | 106.05397 | 10541 ft | 272 kts | 25° |
| 2026-05-06 04:52 | 21.28416 | 106.06438 | 10772 ft | 289 kts | 26° |
| 2026-05-06 04:52 | 21.30210 | 106.07545 | 11012 ft | 306 kts | 26° |
| 2026-05-06 04:52 | 21.32103 | 106.08716 | 11230 ft | 322 kts | 26° |
| 2026-05-06 04:52 | 21.34086 | 106.09945 | 11453 ft | 336 kts | 26° |
| 2026-05-06 04:53 | 21.36118 | 106.11205 | 11649 ft | 349 kts | 26° |
| 2026-05-06 04:53 | 21.38256 | 106.12533 | 11903 ft | 360 kts | 26° |
| 2026-05-06 04:53 | 21.40437 | 106.13893 | 12342 ft | 364 kts | 26° |
| 2026-05-06 04:53 | 21.42631 | 106.15264 | 12832 ft | 367 kts | 26° |
| 2026-05-06 04:54 | 21.44846 | 106.16648 | 13316 ft | 369 kts | 26° |
| 2026-05-06 04:54 | 21.47072 | 106.18041 | 13799 ft | 372 kts | 26° |
| 2026-05-06 04:54 | 21.49311 | 106.19442 | 14216 ft | 374 kts | 26° |
| 2026-05-06 04:54 | 21.51564 | 106.20852 | 14654 ft | 376 kts | 26° |
| 2026-05-06 04:55 | 21.53832 | 106.22273 | 15097 ft | 378 kts | 26° |
| 2026-05-06 04:55 | 21.56081 | 106.23681 | 15509 ft | 381 kts | 26° |
| 2026-05-06 04:55 | 21.58377 | 106.25120 | 15929 ft | 383 kts | 26° |
| 2026-05-06 04:55 | 21.60683 | 106.26565 | 16381 ft | 384 kts | 26° |
| 2026-05-06 04:56 | 21.62999 | 106.28016 | 16776 ft | 387 kts | 26° |
| 2026-05-06 04:56 | 21.65337 | 106.29483 | 17179 ft | 390 kts | 26° |
| 2026-05-06 04:56 | 21.67684 | 106.30955 | 17622 ft | 392 kts | 27° |
| 2026-05-06 04:56 | 21.70046 | 106.32439 | 18002 ft | 394 kts | 27° |
| 2026-05-06 04:57 | 21.72424 | 106.33933 | 18346 ft | 397 kts | 27° |
| 2026-05-06 04:57 | 21.74780 | 106.35415 | 18691 ft | 399 kts | 27° |
| 2026-05-06 04:57 | 21.77185 | 106.36928 | 18999 ft | 402 kts | 27° |
| 2026-05-06 04:57 | 21.79602 | 106.38449 | 19296 ft | 404 kts | 27° |
| 2026-05-06 04:58 | 21.82035 | 106.39981 | 19626 ft | 406 kts | 27° |
| 2026-05-06 04:58 | 21.84475 | 106.41518 | 19937 ft | 408 kts | 27° |
| 2026-05-06 04:58 | 21.86928 | 106.43063 | 20244 ft | 409 kts | 27° |
| 2026-05-06 04:58 | 21.89390 | 106.44614 | 20574 ft | 410 kts | 27° |
| 2026-05-06 04:59 | 21.91861 | 106.46171 | 20831 ft | 413 kts | 27° |
| 2026-05-06 04:59 | 21.94345 | 106.47737 | 21150 ft | 415 kts | 27° |
| 2026-05-06 04:59 | 21.96767 | 106.49361 | 21462 ft | 417 kts | 31° |
| 2026-05-06 04:59 | 21.99129 | 106.51187 | 21748 ft | 420 kts | 33° |
| 2026-05-06 05:00 | 22.01450 | 106.53123 | 22017 ft | 423 kts | 35° |
| 2026-05-06 05:00 | 22.03738 | 106.55114 | 22339 ft | 424 kts | 36° |
| 2026-05-06 05:00 | 22.06023 | 106.57137 | 22614 ft | 426 kts | 36° |
| 2026-05-06 05:00 | 22.08311 | 106.59168 | 22894 ft | 427 kts | 36° |
| 2026-05-06 05:01 | 22.10616 | 106.61208 | 23177 ft | 429 kts | 36° |
| 2026-05-06 05:01 | 22.12929 | 106.63245 | 23449 ft | 430 kts | 36° |
| 2026-05-06 05:01 | 22.15256 | 106.65286 | 23674 ft | 432 kts | 36° |
| 2026-05-06 05:01 | 22.17516 | 106.67372 | 23872 ft | 435 kts | 39° |
| 2026-05-06 05:02 | 22.19725 | 106.69608 | 24106 ft | 436 kts | 40° |
| 2026-05-06 05:02 | 22.21915 | 106.71884 | 24318 ft | 438 kts | 41° |
| 2026-05-06 05:02 | 22.24098 | 106.74191 | 24516 ft | 440 kts | 41° |
| 2026-05-06 05:02 | 22.26279 | 106.76516 | 24746 ft | 441 kts | 41° |
| 2026-05-06 05:03 | 22.28461 | 106.78851 | 24954 ft | 443 kts | 41° |
| 2026-05-06 05:03 | 22.30652 | 106.81195 | 25170 ft | 444 kts | 41° |
| 2026-05-06 05:03 | 22.32790 | 106.83607 | 25358 ft | 447 kts | 47° |
| 2026-05-06 05:03 | 22.34600 | 106.86294 | 25540 ft | 450 kts | 56° |
| 2026-05-06 05:04 | 22.35989 | 106.89338 | 25746 ft | 454 kts | 67° |
| 2026-05-06 05:04 | 22.36900 | 106.92605 | 25981 ft | 455 kts | 73° |
| 2026-05-06 05:04 | 22.37622 | 106.95939 | 26182 ft | 457 kts | 76° |
| 2026-05-06 05:04 | 22.38247 | 106.99309 | 26401 ft | 458 kts | 77° |
| 2026-05-06 05:05 | 22.38830 | 107.02700 | 26626 ft | 460 kts | 78° |
| 2026-05-06 05:05 | 22.39403 | 107.06098 | 26823 ft | 461 kts | 78° |
| 2026-05-06 05:05 | 22.39977 | 107.09469 | 27044 ft | 462 kts | 77° |
| 2026-05-06 05:05 | 22.40570 | 107.12886 | 27272 ft | 463 kts | 77° |
| 2026-05-06 05:06 | 22.41172 | 107.16307 | 27483 ft | 465 kts | 77° |
| 2026-05-06 05:06 | 22.41785 | 107.19748 | 27700 ft | 466 kts | 77° |
| 2026-05-06 05:06 | 22.42402 | 107.23191 | 27916 ft | 468 kts | 77° |
| 2026-05-06 05:06 | 22.43024 | 107.26653 | 28127 ft | 469 kts | 77° |
| 2026-05-06 05:07 | 22.43651 | 107.30118 | 28346 ft | 471 kts | 77° |
| 2026-05-06 05:07 | 22.44281 | 107.33593 | 28556 ft | 472 kts | 77° |
| 2026-05-06 05:07 | 22.44914 | 107.37082 | 28769 ft | 473 kts | 77° |
| 2026-05-06 05:07 | 22.45538 | 107.40533 | 28983 ft | 475 kts | 76° |
| 2026-05-06 05:08 | 22.46170 | 107.44035 | 29217 ft | 476 kts | 76° |
| 2026-05-06 05:08 | 22.46804 | 107.47552 | 29416 ft | 477 kts | 76° |
| 2026-05-06 05:08 | 22.47438 | 107.51077 | 29603 ft | 479 kts | 76° |
| 2026-05-06 05:08 | 22.48073 | 107.54612 | 29820 ft | 480 kts | 76° |
| 2026-05-06 05:09 | 22.48710 | 107.58162 | 30003 ft | 481 kts | 76° |
| 2026-05-06 05:09 | 22.49347 | 107.61720 | 30158 ft | 483 kts | 76° |
| 2026-05-06 05:09 | 22.49985 | 107.65285 | 30318 ft | 484 kts | 76° |
| 2026-05-06 05:09 | 22.50625 | 107.68872 | 30470 ft | 486 kts | 77° |
| 2026-05-06 05:10 | 22.51258 | 107.72418 | 30609 ft | 488 kts | 77° |
| 2026-05-06 05:10 | 22.51899 | 107.76020 | 30769 ft | 489 kts | 76° |
| 2026-05-06 05:10 | 22.52542 | 107.79639 | 30929 ft | 490 kts | 76° |
| 2026-05-06 05:10 | 22.53187 | 107.83264 | 31078 ft | 491 kts | 76° |
| 2026-05-06 05:11 | 22.53832 | 107.86899 | 31238 ft | 493 kts | 76° |
| 2026-05-06 05:11 | 22.54478 | 107.90547 | 31398 ft | 495 kts | 76° |
| 2026-05-06 05:11 | 22.55126 | 107.94208 | 31589 ft | 497 kts | 76° |
| 2026-05-06 05:11 | 22.55776 | 107.97884 | 31802 ft | 498 kts | 76° |
| 2026-05-06 05:12 | 22.56418 | 108.01525 | 32000 ft | 500 kts | 76° |
| 2026-05-06 05:12 | 22.57069 | 108.05222 | 32255 ft | 501 kts | 77° |
| 2026-05-06 05:12 | 22.57720 | 108.08925 | 32587 ft | 501 kts | 77° |
| 2026-05-06 05:12 | 22.58369 | 108.12625 | 32905 ft | 500 kts | 77° |
| 2026-05-06 05:13 | 22.58979 | 108.16334 | 33218 ft | 501 kts | 78° |
| 2026-05-06 05:13 | 22.59472 | 108.20063 | 33533 ft | 501 kts | 80° |
| 2026-05-06 05:13 | 22.59897 | 108.23807 | 33877 ft | 501 kts | 81° |
| 2026-05-06 05:13 | 22.60295 | 108.27554 | 34174 ft | 501 kts | 81° |
| 2026-05-06 05:14 | 22.60689 | 108.31297 | 34473 ft | 501 kts | 81° |
| 2026-05-06 05:14 | 22.61083 | 108.34988 | 34776 ft | 500 kts | 81° |
| 2026-05-06 05:14 | 22.61490 | 108.38719 | 35081 ft | 500 kts | 81° |
| 2026-05-06 05:14 | 22.61905 | 108.42453 | 35379 ft | 499 kts | 81° |
| 2026-05-06 05:15 | 22.62322 | 108.46177 | 35726 ft | 497 kts | 81° |
| 2026-05-06 05:15 | 22.62740 | 108.49882 | 36079 ft | 496 kts | 81° |
| 2026-05-06 05:15 | 22.63157 | 108.53584 | 36350 ft | 496 kts | 81° |
| 2026-05-06 05:15 | 22.63574 | 108.57290 | 36603 ft | 496 kts | 81° |
| 2026-05-06 05:16 | 22.63990 | 108.60998 | 36885 ft | 496 kts | 81° |
| 2026-05-06 05:16 | 22.64406 | 108.64707 | 36997 ft | 495 kts | 81° |
| 2026-05-06 05:16 | 22.64810 | 108.68334 | 37011 ft | 489 kts | 81° |
| 2026-05-06 05:17 | 22.65616 | 108.75606 | 37009 ft | 486 kts | 81° |
| 2026-05-06 05:17 | 22.66420 | 108.82866 | 37010 ft | 485 kts | 81° |
| 2026-05-06 05:18 | 22.67222 | 108.90108 | 37012 ft | 484 kts | 81° |
| 2026-05-06 05:18 | 22.68016 | 108.97304 | 37011 ft | 484 kts | 81° |
| 2026-05-06 05:19 | 22.68811 | 109.04546 | 37012 ft | 484 kts | 81° |
| 2026-05-06 05:19 | 22.69603 | 109.11791 | 37011 ft | 485 kts | 81° |
| 2026-05-06 05:20 | 22.70412 | 109.19038 | 37010 ft | 484 kts | 81° |
| 2026-05-06 05:20 | 22.71225 | 109.26228 | 37004 ft | 484 kts | 81° |
| 2026-05-06 05:21 | 22.72049 | 109.33466 | 37009 ft | 484 kts | 80° |
| 2026-05-06 05:21 | 22.72881 | 109.40699 | 37010 ft | 484 kts | 80° |
| 2026-05-06 05:22 | 22.73712 | 109.47931 | 37012 ft | 484 kts | 80° |
| 2026-05-06 05:22 | 22.74537 | 109.55113 | 37012 ft | 483 kts | 80° |
| 2026-05-06 05:23 | 22.75362 | 109.62342 | 37014 ft | 483 kts | 80° |
| 2026-05-06 05:23 | 22.76594 | 109.73185 | 37017 ft | 483 kts | 80° |
| 2026-05-06 05:24 | 22.77411 | 109.80410 | 37015 ft | 483 kts | 80° |
| 2026-05-06 05:24 | 22.78219 | 109.87588 | 37017 ft | 482 kts | 80° |
| 2026-05-06 05:25 | 22.79027 | 109.94804 | 37016 ft | 482 kts | 80° |
| 2026-05-06 05:25 | 22.79834 | 110.02029 | 37017 ft | 483 kts | 80° |
| 2026-05-06 05:26 | 22.80637 | 110.09252 | 37020 ft | 483 kts | 80° |
| 2026-05-06 05:26 | 22.81432 | 110.16436 | 37019 ft | 483 kts | 80° |
| 2026-05-06 05:27 | 22.82227 | 110.23659 | 37018 ft | 483 kts | 80° |
| 2026-05-06 05:27 | 22.83019 | 110.30884 | 37017 ft | 482 kts | 80° |
| 2026-05-06 05:28 | 22.83808 | 110.38105 | 37021 ft | 483 kts | 80° |
| 2026-05-06 05:28 | 22.84589 | 110.45279 | 37021 ft | 483 kts | 81° |
| 2026-05-06 05:29 | 22.85372 | 110.52511 | 37016 ft | 482 kts | 81° |
| 2026-05-06 05:29 | 22.86178 | 110.59724 | 37018 ft | 482 kts | 80° |
| 2026-05-06 05:30 | 22.87027 | 110.66921 | 37020 ft | 481 kts | 80° |
| 2026-05-06 05:30 | 22.87874 | 110.74077 | 37024 ft | 481 kts | 80° |
| 2026-05-06 05:31 | 22.88718 | 110.81272 | 37019 ft | 481 kts | 80° |
| 2026-05-06 05:31 | 22.89555 | 110.88480 | 37019 ft | 481 kts | 80° |
| 2026-05-06 05:32 | 22.90386 | 110.95678 | 37021 ft | 481 kts | 80° |
| 2026-05-06 05:32 | 22.91075 | 111.01662 | 37026 ft | 481 kts | 80° |
| 2026-05-06 05:33 | 22.92036 | 111.10025 | 37025 ft | 481 kts | 80° |
| 2026-05-06 05:33 | 22.92859 | 111.17224 | 37026 ft | 482 kts | 80° |
| 2026-05-06 05:34 | 22.93543 | 111.23226 | 37026 ft | 483 kts | 80° |
| 2026-05-06 05:34 | 22.94363 | 111.30454 | 37032 ft | 483 kts | 80° |
| 2026-05-06 05:35 | 22.95181 | 111.37691 | 37029 ft | 483 kts | 80° |
| 2026-05-06 05:35 | 22.95995 | 111.44925 | 37030 ft | 483 kts | 80° |
| 2026-05-06 05:36 | 22.96800 | 111.52108 | 37031 ft | 483 kts | 80° |
| 2026-05-06 05:36 | 22.97606 | 111.59340 | 37038 ft | 483 kts | 80° |
| 2026-05-06 05:37 | 22.98401 | 111.66585 | 37038 ft | 483 kts | 80° |
| 2026-05-06 05:37 | 22.99188 | 111.73827 | 37039 ft | 483 kts | 80° |
| 2026-05-06 05:38 | 22.99966 | 111.81013 | 37040 ft | 483 kts | 80° |
| 2026-05-06 05:38 | 23.00748 | 111.88255 | 37040 ft | 483 kts | 80° |
| 2026-05-06 05:39 | 23.01528 | 111.95499 | 37039 ft | 483 kts | 80° |
| 2026-05-06 05:39 | 23.02303 | 112.02736 | 37040 ft | 483 kts | 80° |
| 2026-05-06 05:40 | 23.03071 | 112.09933 | 37047 ft | 483 kts | 81° |
| 2026-05-06 05:40 | 23.03840 | 112.17175 | 37048 ft | 483 kts | 80° |
| 2026-05-06 05:41 | 23.04607 | 112.24426 | 37050 ft | 484 kts | 80° |
| 2026-05-06 05:41 | 23.05371 | 112.31680 | 37061 ft | 483 kts | 80° |
| 2026-05-06 05:42 | 23.06132 | 112.38936 | 37052 ft | 484 kts | 80° |
| 2026-05-06 05:42 | 23.06886 | 112.46205 | 37056 ft | 485 kts | 82° |
| 2026-05-06 05:43 | 23.06821 | 112.53509 | 37054 ft | 488 kts | 90° |
| 2026-05-06 05:43 | 23.06377 | 112.60867 | 37059 ft | 488 kts | 91° |
| 2026-05-06 05:44 | 23.05857 | 112.68214 | 37051 ft | 488 kts | 92° |
| 2026-05-06 05:44 | 23.05337 | 112.75567 | 37065 ft | 488 kts | 92° |
| 2026-05-06 05:45 | 23.04831 | 112.82867 | 37062 ft | 488 kts | 91° |
| 2026-05-06 05:45 | 23.04325 | 112.90211 | 37062 ft | 488 kts | 91° |
| 2026-05-06 05:46 | 23.03815 | 112.97566 | 37058 ft | 488 kts | 91° |
| 2026-05-06 05:46 | 23.03302 | 113.04916 | 37060 ft | 488 kts | 91° |
| 2026-05-06 05:47 | 23.01977 | 113.12087 | 37060 ft | 491 kts | 110° |
| 2026-05-06 05:47 | 23.00455 | 113.15400 | 37060 ft | 491 kts | 123° |
| 2026-05-06 05:47 | 22.98359 | 113.18302 | 37034 ft | 489 kts | 135° |
| 2026-05-06 05:48 | 22.95746 | 113.20693 | 36811 ft | 493 kts | 148° |
| 2026-05-06 05:48 | 22.92731 | 113.22423 | 36569 ft | 490 kts | 160° |
| 2026-05-06 05:48 | 22.89539 | 113.23716 | 36327 ft | 488 kts | 163° |
| 2026-05-06 05:48 | 22.86313 | 113.24870 | 36088 ft | 487 kts | 164° |
| 2026-05-06 05:49 | 22.83079 | 113.25957 | 35848 ft | 486 kts | 165° |
| 2026-05-06 05:49 | 22.79850 | 113.27023 | 35498 ft | 485 kts | 165° |
| 2026-05-06 05:49 | 22.76661 | 113.28083 | 34815 ft | 488 kts | 165° |
| 2026-05-06 05:49 | 22.73403 | 113.29180 | 34047 ft | 493 kts | 164° |
| 2026-05-06 05:50 | 22.70120 | 113.30302 | 33169 ft | 497 kts | 164° |
| 2026-05-06 05:50 | 22.66811 | 113.31446 | 32340 ft | 500 kts | 164° |
| 2026-05-06 05:50 | 22.63490 | 113.32599 | 31532 ft | 502 kts | 164° |
| 2026-05-06 05:50 | 22.60173 | 113.33751 | 30971 ft | 499 kts | 164° |
| 2026-05-06 05:51 | 22.56887 | 113.34892 | 30407 ft | 495 kts | 164° |
| 2026-05-06 05:51 | 22.53606 | 113.36028 | 29774 ft | 493 kts | 164° |
| 2026-05-06 05:51 | 22.50396 | 113.37138 | 29151 ft | 489 kts | 164° |
| 2026-05-06 05:51 | 22.47178 | 113.38249 | 28559 ft | 484 kts | 164° |
| 2026-05-06 05:52 | 22.43983 | 113.39351 | 27954 ft | 480 kts | 164° |
| 2026-05-06 05:52 | 22.40816 | 113.40443 | 27368 ft | 476 kts | 164° |
| 2026-05-06 05:52 | 22.37672 | 113.41525 | 26791 ft | 471 kts | 164° |
| 2026-05-06 05:52 | 22.34558 | 113.42597 | 26198 ft | 468 kts | 164° |
| 2026-05-06 05:53 | 22.31476 | 113.43657 | 25641 ft | 463 kts | 164° |
| 2026-05-06 05:53 | 22.28416 | 113.44710 | 25104 ft | 459 kts | 164° |
| 2026-05-06 05:53 | 22.25385 | 113.45752 | 24540 ft | 456 kts | 164° |
| 2026-05-06 05:53 | 22.22369 | 113.46790 | 23991 ft | 452 kts | 163° |
| 2026-05-06 05:54 | 22.19427 | 113.47827 | 23494 ft | 448 kts | 163° |
| 2026-05-06 05:54 | 22.16484 | 113.48883 | 22858 ft | 445 kts | 163° |
| 2026-05-06 05:54 | 22.13565 | 113.49940 | 22273 ft | 440 kts | 163° |
| 2026-05-06 05:54 | 22.10677 | 113.50992 | 21720 ft | 435 kts | 162° |
| 2026-05-06 05:55 | 22.07825 | 113.52032 | 21148 ft | 431 kts | 162° |
| 2026-05-06 05:55 | 22.05000 | 113.53064 | 20593 ft | 427 kts | 162° |
| 2026-05-06 05:55 | 22.02200 | 113.54087 | 20022 ft | 423 kts | 162° |
| 2026-05-06 05:55 | 21.99437 | 113.55098 | 19642 ft | 415 kts | 161° |
| 2026-05-06 05:56 | 21.96790 | 113.56212 | 19445 ft | 402 kts | 158° |
| 2026-05-06 05:56 | 21.94286 | 113.57360 | 19231 ft | 391 kts | 158° |
| 2026-05-06 05:56 | 21.91806 | 113.58511 | 18836 ft | 386 kts | 158° |
| 2026-05-06 05:56 | 21.89344 | 113.59651 | 18370 ft | 384 kts | 158° |
| 2026-05-06 05:57 | 21.86903 | 113.60778 | 17875 ft | 381 kts | 158° |
| 2026-05-06 05:57 | 21.84475 | 113.61897 | 17333 ft | 378 kts | 158° |
| 2026-05-06 05:57 | 21.82063 | 113.63007 | 16802 ft | 376 kts | 158° |
| 2026-05-06 05:57 | 21.79663 | 113.64110 | 16270 ft | 374 kts | 158° |
| 2026-05-06 05:58 | 21.77278 | 113.65207 | 15743 ft | 372 kts | 158° |
| 2026-05-06 05:58 | 21.74941 | 113.66284 | 15239 ft | 370 kts | 157° |
| 2026-05-06 05:58 | 21.72707 | 113.67652 | 14749 ft | 372 kts | 142° |
| 2026-05-06 05:58 | 21.71056 | 113.69779 | 14257 ft | 375 kts | 117° |
| 2026-05-06 05:59 | 21.70350 | 113.72461 | 13760 ft | 375 kts | 92° |
| 2026-05-06 05:59 | 21.70734 | 113.75198 | 13237 ft | 371 kts | 66° |
| 2026-05-06 05:59 | 21.72094 | 113.77499 | 12707 ft | 364 kts | 44° |
| 2026-05-06 05:59 | 21.73911 | 113.79372 | 12208 ft | 360 kts | 38° |
| 2026-05-06 06:00 | 21.75779 | 113.81144 | 11701 ft | 357 kts | 38° |
| 2026-05-06 06:00 | 21.77607 | 113.82879 | 11216 ft | 353 kts | 38° |
| 2026-05-06 06:00 | 21.79438 | 113.84635 | 10725 ft | 351 kts | 39° |
| 2026-05-06 06:00 | 21.81240 | 113.86379 | 10370 ft | 344 kts | 39° |
| 2026-05-06 06:01 | 21.83012 | 113.88054 | 10131 ft | 333 kts | 34° |
| 2026-05-06 06:01 | 21.85020 | 113.89133 | 9984 ft | 315 kts | 9° |
| 2026-05-06 06:01 | 21.87131 | 113.89128 | 9784 ft | 299 kts | 342° |
| 2026-05-06 06:01 | 21.89068 | 113.88364 | 9309 ft | 296 kts | 332° |
| 2026-05-06 06:02 | 21.90906 | 113.87435 | 8925 ft | 295 kts | 330° |
| 2026-05-06 06:02 | 21.92757 | 113.86479 | 8507 ft | 295 kts | 330° |
| 2026-05-06 06:02 | 21.94600 | 113.85537 | 8103 ft | 293 kts | 331° |
| 2026-05-06 06:02 | 21.96446 | 113.84603 | 7696 ft | 292 kts | 331° |
| 2026-05-06 06:03 | 21.98283 | 113.83681 | 7259 ft | 290 kts | 332° |
| 2026-05-06 06:03 | 22.00110 | 113.82768 | 6692 ft | 289 kts | 332° |
| 2026-05-06 06:03 | 22.01920 | 113.81866 | 6142 ft | 283 kts | 332° |
| 2026-05-06 06:03 | 22.03690 | 113.80986 | 5740 ft | 279 kts | 332° |
| 2026-05-06 06:04 | 22.05453 | 113.80105 | 5358 ft | 279 kts | 332° |
| 2026-05-06 06:04 | 22.07213 | 113.79226 | 4981 ft | 278 kts | 332° |
| 2026-05-06 06:04 | 22.08943 | 113.78363 | 4607 ft | 277 kts | 332° |
| 2026-05-06 06:04 | 22.10693 | 113.77493 | 4221 ft | 277 kts | 333° |
| 2026-05-06 06:05 | 22.12420 | 113.76632 | 4069 ft | 268 kts | 333° |
| 2026-05-06 06:05 | 22.14077 | 113.75808 | 3992 ft | 257 kts | 333° |
| 2026-05-06 06:05 | 22.15672 | 113.75019 | 3883 ft | 248 kts | 332° |
| 2026-05-06 06:05 | 22.17213 | 113.74254 | 3765 ft | 240 kts | 333° |
| 2026-05-06 06:06 | 22.18702 | 113.73513 | 3704 ft | 231 kts | 333° |
| 2026-05-06 06:06 | 22.20144 | 113.72799 | 3579 ft | 227 kts | 333° |
| 2026-05-06 06:06 | 22.21545 | 113.72102 | 3467 ft | 221 kts | 333° |
| 2026-05-06 06:06 | 22.22976 | 113.71647 | 3334 ft | 211 kts | 356° |
| 2026-05-06 06:07 | 22.24340 | 113.72078 | 3122 ft | 204 kts | 33° |
| 2026-05-06 06:07 | 22.25449 | 113.72998 | 2948 ft | 200 kts | 40° |
| 2026-05-06 06:07 | 22.26496 | 113.73986 | 2800 ft | 200 kts | 41° |
| 2026-05-06 06:07 | 22.27529 | 113.74990 | 2675 ft | 200 kts | 45° |
| 2026-05-06 06:08 | 22.28303 | 113.76197 | 2521 ft | 192 kts | 65° |
| 2026-05-06 06:08 | 22.28791 | 113.77521 | 2329 ft | 189 kts | 71° |
| 2026-05-06 06:08 | 22.29203 | 113.78817 | 2170 ft | 180 kts | 71° |
| 2026-05-06 06:08 | 22.29533 | 113.80065 | 2017 ft | 168 kts | 72° |
| 2026-05-06 06:09 | 22.29925 | 113.81228 | 1719 ft | 164 kts | 70° |
| 2026-05-06 06:09 | 22.30313 | 113.82415 | 1202 ft | 171 kts | 72° |
| 2026-05-06 06:09 | 22.30681 | 113.83609 | 931 ft | 161 kts | 72° |
| 2026-05-06 06:09 | 22.31031 | 113.84715 | 730 ft | 150 kts | 71° |
| 2026-05-06 06:10 | 22.31361 | 113.85745 | 540 ft | 140 kts | 71° |
| 2026-05-06 06:10 | 22.31671 | 113.86716 | 366 ft | 136 kts | 72° |
| 2026-05-06 06:10 | 22.31978 | 113.87669 | 181 ft | 136 kts | 71° |
| 2026-05-06 06:10 | 22.32281 | 113.88625 | 40 ft | 131 kts | 71° |
| 2026-05-06 06:11 | 22.32547 | 113.89435 | 36 ft | 89 kts | 71° |
| 2026-05-06 06:11 | 22.32719 | 113.89975 | 36 ft | 67 kts | 71° |
| 2026-05-06 06:11 | 22.32810 | 113.90284 | 36 ft | 32 kts | 80° |
| 2026-05-06 06:11 | 22.32805 | 113.90513 | 36 ft | 30 kts | 100° |
| 2026-05-06 06:12 | 22.32780 | 113.90718 | 36 ft | 25 kts | 78° |
| 2026-05-06 06:12 | 22.32833 | 113.90893 | 36 ft | 25 kts | 71° |
| 2026-05-06 06:12 | 22.32891 | 113.91069 | 36 ft | 25 kts | 70° |
| 2026-05-06 06:12 | 22.32948 | 113.91251 | 36 ft | 26 kts | 71° |
| 2026-05-06 06:13 | 22.33007 | 113.91433 | 36 ft | 26 kts | 71° |
| 2026-05-06 06:13 | 22.33067 | 113.91622 | 36 ft | 27 kts | 71° |
| 2026-05-06 06:13 | 22.33131 | 113.91814 | 36 ft | 27 kts | 70° |
| 2026-05-06 06:13 | 22.33193 | 113.92010 | 36 ft | 27 kts | 71° |
| 2026-05-06 06:14 | 22.33165 | 113.92129 | 36 ft | 17 kts | 151° |
| 2026-05-06 06:14 | 22.33048 | 113.92176 | 36 ft | 20 kts | 161° |
| 2026-05-06 06:14 | 22.32904 | 113.92230 | 36 ft | 23 kts | 161° |
| 2026-05-06 06:14 | 22.32751 | 113.92286 | 36 ft | 24 kts | 161° |
| 2026-05-06 06:15 | 22.32591 | 113.92346 | 36 ft | 25 kts | 161° |
| 2026-05-06 06:15 | 22.32427 | 113.92408 | 36 ft | 26 kts | 161° |
| 2026-05-06 06:15 | 22.32264 | 113.92468 | 36 ft | 16 kts | 161° |
| 2026-05-06 06:15 | 22.32178 | 113.92507 | 36 ft | 13 kts | 137° |
| 2026-05-06 06:16 | 22.32173 | 113.92602 | 36 ft | 14 kts | 77° |
| 2026-05-06 06:16 | 22.32166 | 113.92688 | 36 ft | 10 kts | 134° |
| 2026-05-06 06:16 | 22.32102 | 113.92719 | 38 ft | 11 kts | 161° |
| 2026-05-06 06:16 | 22.32005 | 113.92755 | 38 ft | 17 kts | 161° |
| 2026-05-06 06:17 | 22.31889 | 113.92802 | 36 ft | 19 kts | 158° |
| 2026-05-06 06:17 | 22.31815 | 113.92893 | 36 ft | 16 kts | 85° |
| 2026-05-06 06:17 | 22.31852 | 113.93017 | 36 ft | 20 kts | 70° |
| 2026-05-06 06:17 | 22.31819 | 113.93132 | 36 ft | 17 kts | 149° |
| 2026-05-06 06:18 | 22.31798 | 113.93209 | 36 ft | 10 kts | 75° |
| 2026-05-06 06:18 | 22.31810 | 113.93249 | 36 ft | 3 kts | 71° |
| 2026-05-06 06:18 | 22.31811 | 113.93254 | 36 ft | 0 kts | 71° |